Hope, Canada
Current Conditions -  °F | °C
As of 11:00 PM on Friday 19 Dec 2014 (Local Time) from CYHE Reporting Station
Haze Haze  
Wind Chill:   Ceiling: 10000
Heat Index:   Visibility: 6mi
Dew Point:   Wind: 10mph
Humidity: 100%   Direction: 110°ESE
Pressure: 29.88"   Gusts: NA
Location:  49.36°N, 121.5°W
Report Text: CYHE 200700Z AUTO 11009KT 6SM BR FEW001 OVC100 04/04 A2988 RMK SLP118
Loading
Personal Weather Stations






























Interactive Weather Map New forecast layout! Learn more

10-Day Weather Forecast

Advertisements
Track Severe Weather on mobile